sensor_id;sensor_type;location;lat;lon;timestamp;temperature;humidity
22442;DHT22;11388;54.456;9.752;2023-03-23T00:00:31;11.70;99.90
22442;DHT22;11388;54.456;9.752;2023-03-23T00:03:09;11.80;99.90
22442;DHT22;11388;54.456;9.752;2023-03-23T00:05:37;11.80;99.90
22442;DHT22;11388;54.456;9.752;2023-03-23T00:08:03;11.80;99.90
22442;DHT22;11388;54.456;9.752;2023-03-23T00:10:29;11.70;99.90
22442;DHT22;11388;54.456;9.752;2023-03-23T00:13:00;11.70;99.90
22442;DHT22;11388;54.456;9.752;2023-03-23T00:15:28;11.70;99.90
22442;DHT22;11388;54.456;9.752;2023-03-23T00:17:59;11.70;99.90
22442;DHT22;11388;54.456;9.752;2023-03-23T00:20:28;11.70;99.90
22442;DHT22;11388;54.456;9.752;2023-03-23T00:22:58;11.80;99.90
22442;DHT22;11388;54.456;9.752;2023-03-23T00:25:25;11.80;99.90
22442;DHT22;11388;54.456;9.752;2023-03-23T00:27:54;11.90;99.90
22442;DHT22;11388;54.456;9.752;2023-03-23T00:30:22;11.90;99.90
22442;DHT22;11388;54.456;9.752;2023-03-23T00:32:48;11.80;99.90
22442;DHT22;11388;54.456;9.752;2023-03-23T00:35:16;11.80;99.90
22442;DHT22;11388;54.456;9.752;2023-03-23T00:37:43;11.70;99.90
22442;DHT22;11388;54.456;9.752;2023-03-23T00:40:10;11.70;99.90
22442;DHT22;11388;54.456;9.752;2023-03-23T00:42:40;11.70;99.90
22442;DHT22;11388;54.456;9.752;2023-03-23T00:45:06;11.50;99.90
22442;DHT22;11388;54.456;9.752;2023-03-23T00:47:38;11.50;99.90
22442;DHT22;11388;54.456;9.752;2023-03-23T00:50:06;11.40;99.90
22442;DHT22;11388;54.456;9.752;2023-03-23T00:52:32;11.50;99.90
22442;DHT22;11388;54.456;9.752;2023-03-23T00:55:10;11.50;99.90
22442;DHT22;11388;54.456;9.752;2023-03-23T00:57:41;11.50;99.90
22442;DHT22;11388;54.456;9.752;2023-03-23T01:00:07;11.40;99.90
22442;DHT22;11388;54.456;9.752;2023-03-23T01:02:37;11.40;99.90
22442;DHT22;11388;54.456;9.752;2023-03-23T01:05:06;11.30;99.90
22442;DHT22;11388;54.456;9.752;2023-03-23T01:07:32;11.30;99.90
22442;DHT22;11388;54.456;9.752;2023-03-23T01:09:58;11.40;99.90
22442;DHT22;11388;54.456;9.752;2023-03-23T01:12:25;11.40;99.90
22442;DHT22;11388;54.456;9.752;2023-03-23T01:14:51;11.50;99.90
22442;DHT22;11388;54.456;9.752;2023-03-23T01:17:17;11.40;99.90
22442;DHT22;11388;54.456;9.752;2023-03-23T01:19:44;11.30;99.90
22442;DHT22;11388;54.456;9.752;2023-03-23T01:22:10;11.40;99.90
22442;DHT22;11388;54.456;9.752;2023-03-23T01:24:35;11.30;99.90
22442;DHT22;11388;54.456;9.752;2023-03-23T01:27:01;11.30;99.90
22442;DHT22;11388;54.456;9.752;2023-03-23T01:29:33;11.30;99.90
22442;DHT22;11388;54.456;9.752;2023-03-23T01:31:58;11.20;99.90
22442;DHT22;11388;54.456;9.752;2023-03-23T01:34:25;11.10;99.90
22442;DHT22;11388;54.456;9.752;2023-03-23T01:36:50;11.10;99.90
22442;DHT22;11388;54.456;9.752;2023-03-23T01:39:16;11.00;99.90
22442;DHT22;11388;54.456;9.752;2023-03-23T01:41:42;11.10;99.90
22442;DHT22;11388;54.456;9.752;2023-03-23T01:46:56;11.20;99.90
22442;DHT22;11388;54.456;9.752;2023-03-23T01:49:37;11.10;99.90
22442;DHT22;11388;54.456;9.752;2023-03-23T01:52:40;11.10;99.90
22442;DHT22;11388;54.456;9.752;2023-03-23T01:58:57;10.90;99.90
22442;DHT22;11388;54.456;9.752;2023-03-23T02:01:29;10.90;99.90
22442;DHT22;11388;54.456;9.752;2023-03-23T02:03:56;10.80;99.90
22442;DHT22;11388;54.456;9.752;2023-03-23T02:06:22;10.80;99.90
22442;DHT22;11388;54.456;9.752;2023-03-23T02:08:49;10.80;99.90
22442;DHT22;11388;54.456;9.752;2023-03-23T02:11:17;10.70;99.90
22442;DHT22;11388;54.456;9.752;2023-03-23T02:13:49;10.70;99.90
22442;DHT22;11388;54.456;9.752;2023-03-23T02:28:28;10.50;99.90
22442;DHT22;11388;54.456;9.752;2023-03-23T02:31:10;10.50;99.90
22442;DHT22;11388;54.456;9.752;2023-03-23T02:33:57;10.50;99.90
22442;DHT22;11388;54.456;9.752;2023-03-23T02:36:33;10.50;99.90
22442;DHT22;11388;54.456;9.752;2023-03-23T02:39:09;10.50;99.90
22442;DHT22;11388;54.456;9.752;2023-03-23T02:44:32;10.60;99.90
22442;DHT22;11388;54.456;9.752;2023-03-23T02:47:00;10.60;99.90
22442;DHT22;11388;54.456;9.752;2023-03-23T02:49:29;10.50;99.90
22442;DHT22;11388;54.456;9.752;2023-03-23T02:52:02;10.60;99.90
22442;DHT22;11388;54.456;9.752;2023-03-23T02:54:47;10.50;99.90
22442;DHT22;11388;54.456;9.752;2023-03-23T02:57:13;10.50;99.90
22442;DHT22;11388;54.456;9.752;2023-03-23T02:59:40;10.60;99.90
22442;DHT22;11388;54.456;9.752;2023-03-23T03:02:12;10.60;99.90
22442;DHT22;11388;54.456;9.752;2023-03-23T03:04:42;10.70;99.90
22442;DHT22;11388;54.456;9.752;2023-03-23T03:07:27;10.60;99.90
22442;DHT22;11388;54.456;9.752;2023-03-23T03:09:59;10.70;99.90
22442;DHT22;11388;54.456;9.752;2023-03-23T03:12:39;10.70;99.90
22442;DHT22;11388;54.456;9.752;2023-03-23T03:20:36;10.60;99.90
22442;DHT22;11388;54.456;9.752;2023-03-23T03:23:04;10.60;99.90
22442;DHT22;11388;54.456;9.752;2023-03-23T03:25:38;10.50;99.90
22442;DHT22;11388;54.456;9.752;2023-03-23T03:28:06;10.40;99.90
22442;DHT22;11388;54.456;9.752;2023-03-23T03:30:33;10.40;99.90
22442;DHT22;11388;54.456;9.752;2023-03-23T03:33:01;10.40;99.90
22442;DHT22;11388;54.456;9.752;2023-03-23T03:35:28;10.50;99.90
22442;DHT22;11388;54.456;9.752;2023-03-23T03:37:56;10.50;99.90
22442;DHT22;11388;54.456;9.752;2023-03-23T03:40:23;10.40;99.90
22442;DHT22;11388;54.456;9.752;2023-03-23T03:46:04;10.50;99.90
22442;DHT22;11388;54.456;9.752;2023-03-23T03:48:35;10.50;99.90
22442;DHT22;11388;54.456;9.752;2023-03-23T03:51:03;10.50;99.90
22442;DHT22;11388;54.456;9.752;2023-03-23T03:53:34;10.50;99.90
22442;DHT22;11388;54.456;9.752;2023-03-23T03:56:02;10.40;99.90
22442;DHT22;11388;54.456;9.752;2023-03-23T03:58:32;10.30;99.90
22442;DHT22;11388;54.456;9.752;2023-03-23T04:01:02;10.30;99.90
22442;DHT22;11388;54.456;9.752;2023-03-23T04:03:28;10.10;99.90
22442;DHT22;11388;54.456;9.752;2023-03-23T04:05:57;10.20;99.90
22442;DHT22;11388;54.456;9.752;2023-03-23T04:08:28;10.20;99.90
22442;DHT22;11388;54.456;9.752;2023-03-23T04:10:57;10.20;99.90
22442;DHT22;11388;54.456;9.752;2023-03-23T04:13:23;10.20;99.90
22442;DHT22;11388;54.456;9.752;2023-03-23T04:15:49;10.20;99.90
22442;DHT22;11388;54.456;9.752;2023-03-23T04:18:16;10.30;99.90
22442;DHT22;11388;54.456;9.752;2023-03-23T04:20:47;10.20;99.90
22442;DHT22;11388;54.456;9.752;2023-03-23T04:23:15;10.20;99.90
22442;DHT22;11388;54.456;9.752;2023-03-23T04:25:46;10.10;99.90
22442;DHT22;11388;54.456;9.752;2023-03-23T04:28:13;10.20;99.90
22442;DHT22;11388;54.456;9.752;2023-03-23T04:30:39;10.20;99.90
22442;DHT22;11388;54.456;9.752;2023-03-23T04:33:10;10.20;99.90
22442;DHT22;11388;54.456;9.752;2023-03-23T04:35:40;10.20;99.90
22442;DHT22;11388;54.456;9.752;2023-03-23T04:38:10;10.20;99.90
22442;DHT22;11388;54.456;9.752;2023-03-23T04:40:37;10.20;99.90
22442;DHT22;11388;54.456;9.752;2023-03-23T04:43:05;10.20;99.90
22442;DHT22;11388;54.456;9.752;2023-03-23T04:45:33;10.20;99.90
22442;DHT22;11388;54.456;9.752;2023-03-23T04:47:59;10.10;99.90
22442;DHT22;11388;54.456;9.752;2023-03-23T04:50:31;10.10;99.90
22442;DHT22;11388;54.456;9.752;2023-03-23T04:52:58;10.20;99.90
22442;DHT22;11388;54.456;9.752;2023-03-23T04:55:33;10.20;99.90
22442;DHT22;11388;54.456;9.752;2023-03-23T04:58:08;10.10;99.90
22442;DHT22;11388;54.456;9.752;2023-03-23T05:00:40;10.10;99.90
22442;DHT22;11388;54.456;9.752;2023-03-23T05:03:10;10.10;99.90
22442;DHT22;11388;54.456;9.752;2023-03-23T05:05:42;10.10;99.90
22442;DHT22;11388;54.456;9.752;2023-03-23T05:08:08;10.00;99.90
22442;DHT22;11388;54.456;9.752;2023-03-23T05:10:37;10.10;99.90
22442;DHT22;11388;54.456;9.752;2023-03-23T05:13:06;10.00;99.90
22442;DHT22;11388;54.456;9.752;2023-03-23T05:15:32;10.10;99.90
22442;DHT22;11388;54.456;9.752;2023-03-23T05:17:57;10.10;99.90
22442;DHT22;11388;54.456;9.752;2023-03-23T05:20:23;10.10;99.90
22442;DHT22;11388;54.456;9.752;2023-03-23T05:22:57;10.10;99.90
22442;DHT22;11388;54.456;9.752;2023-03-23T05:25:23;10.10;99.90
22442;DHT22;11388;54.456;9.752;2023-03-23T05:27:52;10.00;99.90
22442;DHT22;11388;54.456;9.752;2023-03-23T05:30:19;10.10;99.90
22442;DHT22;11388;54.456;9.752;2023-03-23T05:32:49;10.10;99.90
22442;DHT22;11388;54.456;9.752;2023-03-23T05:35:17;10.10;99.90
22442;DHT22;11388;54.456;9.752;2023-03-23T05:37:43;10.10;99.90
22442;DHT22;11388;54.456;9.752;2023-03-23T05:40:11;10.10;99.90
22442;DHT22;11388;54.456;9.752;2023-03-23T05:42:38;10.10;99.90
22442;DHT22;11388;54.456;9.752;2023-03-23T05:45:08;10.20;99.90
22442;DHT22;11388;54.456;9.752;2023-03-23T05:47:34;10.20;99.90
22442;DHT22;11388;54.456;9.752;2023-03-23T05:50:00;10.10;99.90
22442;DHT22;11388;54.456;9.752;2023-03-23T05:52:26;10.30;99.90
22442;DHT22;11388;54.456;9.752;2023-03-23T05:54:52;10.30;99.90
22442;DHT22;11388;54.456;9.752;2023-03-23T05:57:18;10.40;99.90
22442;DHT22;11388;54.456;9.752;2023-03-23T05:59:47;10.40;99.90
22442;DHT22;11388;54.456;9.752;2023-03-23T06:02:13;10.40;99.90
22442;DHT22;11388;54.456;9.752;2023-03-23T06:04:40;10.40;99.90
22442;DHT22;11388;54.456;9.752;2023-03-23T06:07:08;10.50;99.90
22442;DHT22;11388;54.456;9.752;2023-03-23T06:09:39;10.50;99.90
22442;DHT22;11388;54.456;9.752;2023-03-23T06:12:10;10.60;99.90
22442;DHT22;11388;54.456;9.752;2023-03-23T06:14:41;10.70;99.90
22442;DHT22;11388;54.456;9.752;2023-03-23T06:17:13;10.80;99.90
22442;DHT22;11388;54.456;9.752;2023-03-23T06:19:59;10.90;99.90
22442;DHT22;11388;54.456;9.752;2023-03-23T06:25:18;11.10;99.90
22442;DHT22;11388;54.456;9.752;2023-03-23T06:27:44;11.20;99.90
22442;DHT22;11388;54.456;9.752;2023-03-23T06:30:12;11.30;99.90
22442;DHT22;11388;54.456;9.752;2023-03-23T06:32:40;11.40;99.90
22442;DHT22;11388;54.456;9.752;2023-03-23T06:35:10;11.50;99.90
22442;DHT22;11388;54.456;9.752;2023-03-23T06:37:37;11.50;99.90
22442;DHT22;11388;54.456;9.752;2023-03-23T06:40:06;11.60;99.90
22442;DHT22;11388;54.456;9.752;2023-03-23T06:42:32;11.60;99.90
22442;DHT22;11388;54.456;9.752;2023-03-23T06:45:01;11.60;99.90
22442;DHT22;11388;54.456;9.752;2023-03-23T06:47:27;11.70;99.90
22442;DHT22;11388;54.456;9.752;2023-03-23T06:49:58;11.60;99.90
22442;DHT22;11388;54.456;9.752;2023-03-23T06:52:28;11.80;99.90
22442;DHT22;11388;54.456;9.752;2023-03-23T06:54:54;11.70;99.90
22442;DHT22;11388;54.456;9.752;2023-03-23T06:57:25;11.80;99.90
22442;DHT22;11388;54.456;9.752;2023-03-23T07:00:04;11.70;99.90
22442;DHT22;11388;54.456;9.752;2023-03-23T07:02:36;11.80;99.90
22442;DHT22;11388;54.456;9.752;2023-03-23T07:05:12;11.80;99.90
22442;DHT22;11388;54.456;9.752;2023-03-23T07:07:41;11.90;99.90
22442;DHT22;11388;54.456;9.752;2023-03-23T07:10:08;11.80;99.90
22442;DHT22;11388;54.456;9.752;2023-03-23T07:12:36;11.90;99.90
22442;DHT22;11388;54.456;9.752;2023-03-23T07:15:05;11.90;99.90
22442;DHT22;11388;54.456;9.752;2023-03-23T07:17:36;11.80;99.90
22442;DHT22;11388;54.456;9.752;2023-03-23T07:20:07;11.90;99.90
22442;DHT22;11388;54.456;9.752;2023-03-23T07:22:38;11.90;99.90
22442;DHT22;11388;54.456;9.752;2023-03-23T07:25:10;11.90;99.90
22442;DHT22;11388;54.456;9.752;2023-03-23T07:27:39;11.90;99.90
22442;DHT22;11388;54.456;9.752;2023-03-23T07:30:15;12.10;99.90
22442;DHT22;11388;54.456;9.752;2023-03-23T07:32:48;12.10;99.90
22442;DHT22;11388;54.456;9.752;2023-03-23T07:35:46;12.10;99.90
22442;DHT22;11388;54.456;9.752;2023-03-23T07:38:39;12.00;99.90
22442;DHT22;11388;54.456;9.752;2023-03-23T07:41:34;12.00;99.90
22442;DHT22;11388;54.456;9.752;2023-03-23T07:44:06;12.00;99.90
22442;DHT22;11388;54.456;9.752;2023-03-23T07:46:35;12.10;99.90
22442;DHT22;11388;54.456;9.752;2023-03-23T07:49:04;12.30;99.90
22442;DHT22;11388;54.456;9.752;2023-03-23T07:51:31;12.30;99.90
22442;DHT22;11388;54.456;9.752;2023-03-23T07:54:15;12.30;99.90
22442;DHT22;11388;54.456;9.752;2023-03-23T07:56:44;12.20;99.90
22442;DHT22;11388;54.456;9.752;2023-03-23T07:59:13;12.20;99.90
22442;DHT22;11388;54.456;9.752;2023-03-23T08:01:44;12.20;99.90
22442;DHT22;11388;54.456;9.752;2023-03-23T08:04:13;12.20;99.90
22442;DHT22;11388;54.456;9.752;2023-03-23T08:06:44;12.20;99.90
22442;DHT22;11388;54.456;9.752;2023-03-23T08:09:34;12.10;99.90
22442;DHT22;11388;54.456;9.752;2023-03-23T08:12:06;12.10;99.90
22442;DHT22;11388;54.456;9.752;2023-03-23T08:14:46;12.20;99.90
22442;DHT22;11388;54.456;9.752;2023-03-23T08:17:19;12.30;99.90
22442;DHT22;11388;54.456;9.752;2023-03-23T08:19:47;12.30;99.90
22442;DHT22;11388;54.456;9.752;2023-03-23T08:22:16;12.30;99.90
22442;DHT22;11388;54.456;9.752;2023-03-23T08:24:44;12.30;99.90
22442;DHT22;11388;54.456;9.752;2023-03-23T08:27:16;12.20;99.90
22442;DHT22;11388;54.456;9.752;2023-03-23T08:29:50;12.30;99.90
22442;DHT22;11388;54.456;9.752;2023-03-23T08:32:29;12.30;99.90
22442;DHT22;11388;54.456;9.752;2023-03-23T08:34:57;12.40;99.90
22442;DHT22;11388;54.456;9.752;2023-03-23T08:37:23;12.50;99.90
22442;DHT22;11388;54.456;9.752;2023-03-23T08:40:11;12.50;99.90
22442;DHT22;11388;54.456;9.752;2023-03-23T08:52:28;12.50;99.90
22442;DHT22;11388;54.456;9.752;2023-03-23T08:55:20;12.40;99.90
